sensor_id;sensor_type;location;lat;lon;timestamp;temperature;humidity
27409;DHT22;20413;50.782;7.152;2022-08-19T00:01:28;19.30;99.90
27409;DHT22;20413;50.782;7.152;2022-08-19T00:03:58;19.20;99.90
27409;DHT22;20413;50.782;7.152;2022-08-19T00:06:25;19.20;99.90
27409;DHT22;20413;50.782;7.152;2022-08-19T00:08:51;19.20;99.90
27409;DHT22;20413;50.782;7.152;2022-08-19T00:11:17;19.10;99.90
27409;DHT22;20413;50.782;7.152;2022-08-19T00:13:43;19.10;99.90
27409;DHT22;20413;50.782;7.152;2022-08-19T00:16:08;19.10;99.90
27409;DHT22;20413;50.782;7.152;2022-08-19T00:18:34;19.10;99.90
27409;DHT22;20413;50.782;7.152;2022-08-19T00:21:00;19.10;99.90
27409;DHT22;20413;50.782;7.152;2022-08-19T00:23:26;19.10;99.90
27409;DHT22;20413;50.782;7.152;2022-08-19T00:25:52;19.00;99.90
27409;DHT22;20413;50.782;7.152;2022-08-19T00:28:19;19.00;99.90
27409;DHT22;20413;50.782;7.152;2022-08-19T00:30:46;19.00;99.90
27409;DHT22;20413;50.782;7.152;2022-08-19T00:33:11;18.90;99.90
27409;DHT22;20413;50.782;7.152;2022-08-19T00:35:37;18.90;99.90
27409;DHT22;20413;50.782;7.152;2022-08-19T00:38:04;18.80;99.90
27409;DHT22;20413;50.782;7.152;2022-08-19T00:40:30;18.90;99.90
27409;DHT22;20413;50.782;7.152;2022-08-19T00:42:56;18.90;99.90
27409;DHT22;20413;50.782;7.152;2022-08-19T00:45:24;18.90;99.90
27409;DHT22;20413;50.782;7.152;2022-08-19T00:47:50;18.90;99.90
27409;DHT22;20413;50.782;7.152;2022-08-19T00:50:18;18.90;99.90
27409;DHT22;20413;50.782;7.152;2022-08-19T00:52:47;18.80;99.90
27409;DHT22;20413;50.782;7.152;2022-08-19T00:55:21;18.70;99.90
27409;DHT22;20413;50.782;7.152;2022-08-19T00:57:56;18.70;99.90
27409;DHT22;20413;50.782;7.152;2022-08-19T01:00:25;18.70;99.90
27409;DHT22;20413;50.782;7.152;2022-08-19T01:02:52;18.70;99.90
27409;DHT22;20413;50.782;7.152;2022-08-19T01:05:22;18.60;99.90
27409;DHT22;20413;50.782;7.152;2022-08-19T01:07:49;18.60;99.90
27409;DHT22;20413;50.782;7.152;2022-08-19T01:10:19;18.60;99.90
27409;DHT22;20413;50.782;7.152;2022-08-19T01:12:46;18.50;99.90
27409;DHT22;20413;50.782;7.152;2022-08-19T01:15:17;18.50;99.90
27409;DHT22;20413;50.782;7.152;2022-08-19T01:17:44;18.50;99.90
27409;DHT22;20413;50.782;7.152;2022-08-19T01:20:17;18.50;99.90
27409;DHT22;20413;50.782;7.152;2022-08-19T01:22:50;18.50;99.90
27409;DHT22;20413;50.782;7.152;2022-08-19T01:25:19;18.50;99.90
27409;DHT22;20413;50.782;7.152;2022-08-19T01:27:49;18.50;99.90
27409;DHT22;20413;50.782;7.152;2022-08-19T01:30:17;18.40;99.90
27409;DHT22;20413;50.782;7.152;2022-08-19T01:32:43;18.50;99.90
27409;DHT22;20413;50.782;7.152;2022-08-19T01:35:10;18.50;99.90
27409;DHT22;20413;50.782;7.152;2022-08-19T01:38:10;18.40;99.90
27409;DHT22;20413;50.782;7.152;2022-08-19T01:40:44;18.40;99.90
27409;DHT22;20413;50.782;7.152;2022-08-19T01:43:09;18.40;99.90
27409;DHT22;20413;50.782;7.152;2022-08-19T01:45:35;18.40;99.90
27409;DHT22;20413;50.782;7.152;2022-08-19T01:48:02;18.30;99.90
27409;DHT22;20413;50.782;7.152;2022-08-19T01:50:29;18.30;99.90
27409;DHT22;20413;50.782;7.152;2022-08-19T01:52:55;18.30;99.90
27409;DHT22;20413;50.782;7.152;2022-08-19T01:55:21;18.30;99.90
27409;DHT22;20413;50.782;7.152;2022-08-19T01:57:52;18.30;99.90
27409;DHT22;20413;50.782;7.152;2022-08-19T02:00:21;18.30;99.90
27409;DHT22;20413;50.782;7.152;2022-08-19T02:02:48;18.40;99.90
27409;DHT22;20413;50.782;7.152;2022-08-19T02:05:14;18.40;99.90
27409;DHT22;20413;50.782;7.152;2022-08-19T02:07:40;18.30;99.90
27409;DHT22;20413;50.782;7.152;2022-08-19T02:10:10;18.20;99.90
27409;DHT22;20413;50.782;7.152;2022-08-19T02:12:38;18.20;99.90
27409;DHT22;20413;50.782;7.152;2022-08-19T02:15:04;18.20;99.90
27409;DHT22;20413;50.782;7.152;2022-08-19T02:17:31;18.20;99.90
27409;DHT22;20413;50.782;7.152;2022-08-19T02:19:57;18.20;99.90
27409;DHT22;20413;50.782;7.152;2022-08-19T02:22:23;18.20;99.90
27409;DHT22;20413;50.782;7.152;2022-08-19T02:24:51;18.20;99.90
27409;DHT22;20413;50.782;7.152;2022-08-19T02:27:17;18.20;99.90
27409;DHT22;20413;50.782;7.152;2022-08-19T02:29:43;18.20;99.90
27409;DHT22;20413;50.782;7.152;2022-08-19T02:32:10;18.20;99.90
27409;DHT22;20413;50.782;7.152;2022-08-19T02:34:36;18.20;99.90
27409;DHT22;20413;50.782;7.152;2022-08-19T02:37:01;18.10;99.90
27409;DHT22;20413;50.782;7.152;2022-08-19T02:39:27;18.00;99.90
27409;DHT22;20413;50.782;7.152;2022-08-19T02:41:52;18.10;99.90
27409;DHT22;20413;50.782;7.152;2022-08-19T02:44:18;18.10;99.90
27409;DHT22;20413;50.782;7.152;2022-08-19T02:46:46;18.10;99.90
27409;DHT22;20413;50.782;7.152;2022-08-19T02:49:12;18.10;99.90
27409;DHT22;20413;50.782;7.152;2022-08-19T02:51:40;18.10;99.90
27409;DHT22;20413;50.782;7.152;2022-08-19T02:54:07;18.00;99.90
27409;DHT22;20413;50.782;7.152;2022-08-19T02:56:38;18.10;99.90
27409;DHT22;20413;50.782;7.152;2022-08-19T02:59:05;18.10;99.90
27409;DHT22;20413;50.782;7.152;2022-08-19T03:01:35;18.00;99.90
27409;DHT22;20413;50.782;7.152;2022-08-19T03:04:03;18.00;99.90
27409;DHT22;20413;50.782;7.152;2022-08-19T03:06:30;18.00;99.90
27409;DHT22;20413;50.782;7.152;2022-08-19T03:08:56;18.00;99.90
27409;DHT22;20413;50.782;7.152;2022-08-19T03:11:27;18.00;99.90
27409;DHT22;20413;50.782;7.152;2022-08-19T03:13:54;18.00;99.90
27409;DHT22;20413;50.782;7.152;2022-08-19T03:16:23;18.00;99.90
27409;DHT22;20413;50.782;7.152;2022-08-19T03:18:49;17.90;99.90
27409;DHT22;20413;50.782;7.152;2022-08-19T03:21:20;17.90;99.90
27409;DHT22;20413;50.782;7.152;2022-08-19T03:23:47;17.90;99.90
27409;DHT22;20413;50.782;7.152;2022-08-19T03:26:13;17.90;99.90
27409;DHT22;20413;50.782;7.152;2022-08-19T03:28:43;17.90;99.90
27409;DHT22;20413;50.782;7.152;2022-08-19T03:31:12;17.90;99.90
27409;DHT22;20413;50.782;7.152;2022-08-19T03:33:38;17.90;99.90
27409;DHT22;20413;50.782;7.152;2022-08-19T03:36:10;17.90;99.90
27409;DHT22;20413;50.782;7.152;2022-08-19T03:38:39;17.90;99.90
27409;DHT22;20413;50.782;7.152;2022-08-19T03:41:07;17.90;99.90
27409;DHT22;20413;50.782;7.152;2022-08-19T03:43:38;17.90;99.90
27409;DHT22;20413;50.782;7.152;2022-08-19T03:46:07;17.90;99.90
27409;DHT22;20413;50.782;7.152;2022-08-19T03:48:34;17.90;99.90
27409;DHT22;20413;50.782;7.152;2022-08-19T03:51:00;17.90;99.90
27409;DHT22;20413;50.782;7.152;2022-08-19T03:53:27;17.90;99.90
27409;DHT22;20413;50.782;7.152;2022-08-19T03:55:53;17.90;99.90
27409;DHT22;20413;50.782;7.152;2022-08-19T03:58:19;17.80;99.90
27409;DHT22;20413;50.782;7.152;2022-08-19T04:00:45;17.90;99.90
27409;DHT22;20413;50.782;7.152;2022-08-19T04:03:10;17.80;99.90
27409;DHT22;20413;50.782;7.152;2022-08-19T04:05:36;17.90;99.90
27409;DHT22;20413;50.782;7.152;2022-08-19T04:08:04;17.90;99.90
27409;DHT22;20413;50.782;7.152;2022-08-19T04:10:34;17.80;99.90
27409;DHT22;20413;50.782;7.152;2022-08-19T04:13:00;17.80;99.90
27409;DHT22;20413;50.782;7.152;2022-08-19T04:15:26;17.70;99.90
27409;DHT22;20413;50.782;7.152;2022-08-19T04:17:52;17.70;99.90
27409;DHT22;20413;50.782;7.152;2022-08-19T04:20:18;17.70;99.90
27409;DHT22;20413;50.782;7.152;2022-08-19T04:22:43;17.70;99.90
27409;DHT22;20413;50.782;7.152;2022-08-19T04:25:10;17.60;99.90
27409;DHT22;20413;50.782;7.152;2022-08-19T04:27:35;17.60;99.90
27409;DHT22;20413;50.782;7.152;2022-08-19T04:30:01;17.60;99.90
27409;DHT22;20413;50.782;7.152;2022-08-19T04:32:27;17.60;99.90
27409;DHT22;20413;50.782;7.152;2022-08-19T04:34:52;17.60;99.90
27409;DHT22;20413;50.782;7.152;2022-08-19T04:37:23;17.60;99.90
27409;DHT22;20413;50.782;7.152;2022-08-19T04:39:50;17.60;99.90
27409;DHT22;20413;50.782;7.152;2022-08-19T04:42:34;17.60;99.90
27409;DHT22;20413;50.782;7.152;2022-08-19T04:45:08;17.60;99.90
27409;DHT22;20413;50.782;7.152;2022-08-19T04:47:39;17.60;99.90
27409;DHT22;20413;50.782;7.152;2022-08-19T04:50:06;17.60;99.90
27409;DHT22;20413;50.782;7.152;2022-08-19T04:52:31;17.60;99.90
27409;DHT22;20413;50.782;7.152;2022-08-19T04:54:58;17.70;99.90
27409;DHT22;20413;50.782;7.152;2022-08-19T04:57:24;17.70;99.90
27409;DHT22;20413;50.782;7.152;2022-08-19T04:59:53;17.70;99.90
27409;DHT22;20413;50.782;7.152;2022-08-19T05:02:19;17.70;99.90
27409;DHT22;20413;50.782;7.152;2022-08-19T05:04:44;17.60;99.90
27409;DHT22;20413;50.782;7.152;2022-08-19T05:07:10;17.70;99.90
27409;DHT22;20413;50.782;7.152;2022-08-19T05:09:36;17.70;99.90
27409;DHT22;20413;50.782;7.152;2022-08-19T05:12:02;17.60;99.90
27409;DHT22;20413;50.782;7.152;2022-08-19T05:14:28;17.70;99.90
27409;DHT22;20413;50.782;7.152;2022-08-19T05:16:54;17.70;99.90
27409;DHT22;20413;50.782;7.152;2022-08-19T05:19:19;17.80;99.90
27409;DHT22;20413;50.782;7.152;2022-08-19T05:22:04;17.80;99.90
27409;DHT22;20413;50.782;7.152;2022-08-19T05:24:48;17.90;99.90
27409;DHT22;20413;50.782;7.152;2022-08-19T05:27:14;17.90;99.90
27409;DHT22;20413;50.782;7.152;2022-08-19T05:29:39;18.00;99.90
27409;DHT22;20413;50.782;7.152;2022-08-19T05:32:30;18.00;99.90
27409;DHT22;20413;50.782;7.152;2022-08-19T05:35:01;18.10;99.90
27409;DHT22;20413;50.782;7.152;2022-08-19T05:37:27;18.10;99.90
27409;DHT22;20413;50.782;7.152;2022-08-19T05:39:53;18.20;99.90
27409;DHT22;20413;50.782;7.152;2022-08-19T05:42:20;18.20;99.90
27409;DHT22;20413;50.782;7.152;2022-08-19T05:44:48;18.30;99.90
27409;DHT22;20413;50.782;7.152;2022-08-19T05:47:14;18.40;99.90
27409;DHT22;20413;50.782;7.152;2022-08-19T05:49:41;18.40;99.90
27409;DHT22;20413;50.782;7.152;2022-08-19T05:52:10;18.50;99.90
27409;DHT22;20413;50.782;7.152;2022-08-19T05:54:40;18.50;99.90
27409;DHT22;20413;50.782;7.152;2022-08-19T05:57:07;18.50;99.90
27409;DHT22;20413;50.782;7.152;2022-08-19T05:59:33;18.60;99.90
27409;DHT22;20413;50.782;7.152;2022-08-19T06:02:00;18.70;99.90
27409;DHT22;20413;50.782;7.152;2022-08-19T06:04:26;18.80;99.90
27409;DHT22;20413;50.782;7.152;2022-08-19T06:06:53;18.80;99.90
27409;DHT22;20413;50.782;7.152;2022-08-19T06:09:20;18.90;99.90
27409;DHT22;20413;50.782;7.152;2022-08-19T06:11:49;19.00;99.90
27409;DHT22;20413;50.782;7.152;2022-08-19T06:14:20;19.00;99.90
27409;DHT22;20413;50.782;7.152;2022-08-19T06:16:47;19.10;99.90
27409;DHT22;20413;50.782;7.152;2022-08-19T06:19:15;19.10;99.90
27409;DHT22;20413;50.782;7.152;2022-08-19T06:21:44;19.20;99.90
27409;DHT22;20413;50.782;7.152;2022-08-19T06:24:11;19.20;99.90
27409;DHT22;20413;50.782;7.152;2022-08-19T06:26:40;19.30;99.90
27409;DHT22;20413;50.782;7.152;2022-08-19T06:29:08;19.40;99.90
27409;DHT22;20413;50.782;7.152;2022-08-19T06:31:35;19.60;99.90
27409;DHT22;20413;50.782;7.152;2022-08-19T06:34:03;19.70;99.90
27409;DHT22;20413;50.782;7.152;2022-08-19T06:36:36;19.90;99.90
27409;DHT22;20413;50.782;7.152;2022-08-19T06:39:05;20.10;99.90
27409;DHT22;20413;50.782;7.152;2022-08-19T06:41:33;20.30;99.90
27409;DHT22;20413;50.782;7.152;2022-08-19T06:43:59;20.50;99.90
27409;DHT22;20413;50.782;7.152;2022-08-19T06:46:25;20.60;99.90
27409;DHT22;20413;50.782;7.152;2022-08-19T06:48:52;20.60;99.90
27409;DHT22;20413;50.782;7.152;2022-08-19T06:51:18;20.70;99.90
27409;DHT22;20413;50.782;7.152;2022-08-19T06:53:48;20.70;99.90
27409;DHT22;20413;50.782;7.152;2022-08-19T06:56:16;20.80;99.90
27409;DHT22;20413;50.782;7.152;2022-08-19T06:58:43;21.00;99.90
27409;DHT22;20413;50.782;7.152;2022-08-19T07:01:09;21.20;99.90
27409;DHT22;20413;50.782;7.152;2022-08-19T07:03:37;21.40;99.90
27409;DHT22;20413;50.782;7.152;2022-08-19T07:06:11;21.80;99.90
27409;DHT22;20413;50.782;7.152;2022-08-19T07:08:38;22.10;99.90
27409;DHT22;20413;50.782;7.152;2022-08-19T07:11:07;22.30;99.90
27409;DHT22;20413;50.782;7.152;2022-08-19T07:13:34;22.50;99.90
27409;DHT22;20413;50.782;7.152;2022-08-19T07:16:16;22.60;99.90
27409;DHT22;20413;50.782;7.152;2022-08-19T07:18:42;22.50;99.90
27409;DHT22;20413;50.782;7.152;2022-08-19T07:21:10;22.40;99.90
27409;DHT22;20413;50.782;7.152;2022-08-19T07:23:36;22.50;99.90
27409;DHT22;20413;50.782;7.152;2022-08-19T07:26:11;22.60;99.90
27409;DHT22;20413;50.782;7.152;2022-08-19T07:28:38;22.70;99.90
27409;DHT22;20413;50.782;7.152;2022-08-19T07:31:06;23.10;99.90
27409;DHT22;20413;50.782;7.152;2022-08-19T07:33:32;23.30;99.90
27409;DHT22;20413;50.782;7.152;2022-08-19T07:38:25;23.80;99.90
27409;DHT22;20413;50.782;7.152;2022-08-19T07:40:51;24.10;99.90
27409;DHT22;20413;50.782;7.152;2022-08-19T07:43:17;23.70;99.90
27409;DHT22;20413;50.782;7.152;2022-08-19T07:45:48;24.10;99.90
27409;DHT22;20413;50.782;7.152;2022-08-19T07:48:13;24.40;99.90
27409;DHT22;20413;50.782;7.152;2022-08-19T07:50:40;24.90;99.90
27409;DHT22;20413;50.782;7.152;2022-08-19T07:53:05;25.10;99.90
27409;DHT22;20413;50.782;7.152;2022-08-19T07:55:31;25.80;99.90
27409;DHT22;20413;50.782;7.152;2022-08-19T07:57:57;26.20;99.90
27409;DHT22;20413;50.782;7.152;2022-08-19T08:00:22;25.90;99.90
27409;DHT22;20413;50.782;7.152;2022-08-19T08:02:48;25.90;99.90
27409;DHT22;20413;50.782;7.152;2022-08-19T08:05:16;26.20;99.90
27409;DHT22;20413;50.782;7.152;2022-08-19T08:08:01;26.40;99.90
27409;DHT22;20413;50.782;7.152;2022-08-19T08:10:45;26.80;99.90
27409;DHT22;20413;50.782;7.152;2022-08-19T08:13:11;26.80;99.90
27409;DHT22;20413;50.782;7.152;2022-08-19T08:15:37;26.70;99.90
27409;DHT22;20413;50.782;7.152;2022-08-19T08:18:04;26.80;99.90
27409;DHT22;20413;50.782;7.152;2022-08-19T08:20:30;26.60;99.90
27409;DHT22;20413;50.782;7.152;2022-08-19T08:22:55;27.20;99.90
27409;DHT22;20413;50.782;7.152;2022-08-19T08:25:40;27.30;99.90
27409;DHT22;20413;50.782;7.152;2022-08-19T08:28:05;27.80;99.90
27409;DHT22;20413;50.782;7.152;2022-08-19T08:30:33;27.70;99.90
27409;DHT22;20413;50.782;7.152;2022-08-19T08:33:01;27.60;99.90
27409;DHT22;20413;50.782;7.152;2022-08-19T08:35:26;27.30;99.90
27409;DHT22;20413;50.782;7.152;2022-08-19T08:37:54;26.70;99.90
27409;DHT22;20413;50.782;7.152;2022-08-19T08:45:59;26.70;99.90
27409;DHT22;20413;50.782;7.152;2022-08-19T08:48:49;27.70;99.90
27409;DHT22;20413;50.782;7.152;2022-08-19T08:53:50;28.30;99.90
27409;DHT22;20413;50.782;7.152;2022-08-19T08:56:16;27.90;99.90
27409;DHT22;20413;50.782;7.152;2022-08-19T08:59:01;28.40;99.90
27409;DHT22;20413;50.782;7.152;2022-08-19T09:01:29;28.50;99.90
27409;DHT22;20413;50.782;7.152;2022-08-19T09:03:54;29.00;99.90
27409;DHT22;20413;50.782;7.152;2022-08-19T09:06:29;29.30;99.90
27409;DHT22;20413;50.782;7.152;2022-08-19T09:09:04;30.00;99.90
27409;DHT22;20413;50.782;7.152;2022-08-19T09:11:40;31.10;99.90
27409;DHT22;20413;50.782;7.152;2022-08-19T09:16:45;30.90;99.90
27409;DHT22;20413;50.782;7.152;2022-08-19T09:19:11;30.80;99.90
27409;DHT22;20413;50.782;7.152;2022-08-19T09:21:37;30.40;99.90
27409;DHT22;20413;50.782;7.152;2022-08-19T09:24:04;30.30;99.90
27409;DHT22;20413;50.782;7.152;2022-08-19T09:26:30;30.60;99.90
27409;DHT22;20413;50.782;7.152;2022-08-19T09:29:00;30.40;99.90
27409;DHT22;20413;50.782;7.152;2022-08-19T09:31:28;30.70;99.90
27409;DHT22;20413;50.782;7.152;2022-08-19T09:33:55;31.50;99.90
27409;DHT22;20413;50.782;7.152;2022-08-19T09:36:25;31.90;99.90
27409;DHT22;20413;50.782;7.152;2022-08-19T09:38:52;31.70;99.90
27409;DHT22;20413;50.782;7.152;2022-08-19T09:41:21;31.70;99.90
27409;DHT22;20413;50.782;7.152;2022-08-19T09:43:49;32.60;99.90
27409;DHT22;20413;50.782;7.152;2022-08-19T09:46:18;32.90;99.90
27409;DHT22;20413;50.782;7.152;2022-08-19T09:48:47;33.10;98.60
27409;DHT22;20413;50.782;7.152;2022-08-19T09:51:16;33.50;97.80
27409;DHT22;20413;50.782;7.152;2022-08-19T09:53:44;33.40;97.30
27409;DHT22;20413;50.782;7.152;2022-08-19T09:56:11;32.90;98.10
27409;DHT22;20413;50.782;7.152;2022-08-19T09:58:37;33.10;97.40
27409;DHT22;20413;50.782;7.152;2022-08-19T10:01:04;33.10;97.40
27409;DHT22;20413;50.782;7.152;2022-08-19T10:03:31;32.90;97.50
27409;DHT22;20413;50.782;7.152;2022-08-19T10:05:59;33.10;97.80
27409;DHT22;20413;50.782;7.152;2022-08-19T10:08:26;33.50;96.30
27409;DHT22;20413;50.782;7.152;2022-08-19T10:10:52;34.20;95.90
27409;DHT22;20413;50.782;7.152;2022-08-19T10:13:20;34.30;96.20
27409;DHT22;20413;50.782;7.152;2022-08-19T10:15:53;34.60;95.00
27409;DHT22;20413;50.782;7.152;2022-08-19T10:18:19;34.60;95.30
27409;DHT22;20413;50.782;7.152;2022-08-19T10:20:46;35.20;94.60
27409;DHT22;20413;50.782;7.152;2022-08-19T10:23:13;35.20;94.40
27409;DHT22;20413;50.782;7.152;2022-08-19T10:25:39;34.80;94.10
27409;DHT22;20413;50.782;7.152;2022-08-19T10:28:05;34.20;94.70
27409;DHT22;20413;50.782;7.152;2022-08-19T10:30:31;33.80;94.50
27409;DHT22;20413;50.782;7.152;2022-08-19T10:32:57;33.40;95.30
27409;DHT22;20413;50.782;7.152;2022-08-19T10:35:23;33.40;95.50
27409;DHT22;20413;50.782;7.152;2022-08-19T10:37:50;33.30;95.80
27409;DHT22;20413;50.782;7.152;2022-08-19T10:40:16;33.60;95.20
27409;DHT22;20413;50.782;7.152;2022-08-19T10:42:41;32.30;95.50
27409;DHT22;20413;50.782;7.152;2022-08-19T10:45:07;31.70;97.60
27409;DHT22;20413;50.782;7.152;2022-08-19T10:47:35;32.40;96.70
27409;DHT22;20413;50.782;7.152;2022-08-19T10:50:00;32.60;95.70
27409;DHT22;20413;50.782;7.152;2022-08-19T10:52:49;32.50;96.20
27409;DHT22;20413;50.782;7.152;2022-08-19T10:55:15;32.80;96.00
27409;DHT22;20413;50.782;7.152;2022-08-19T10:57:59;32.40;95.90
27409;DHT22;20413;50.782;7.152;2022-08-19T11:00:25;31.30;96.90
27409;DHT22;20413;50.782;7.152;2022-08-19T11:02:51;30.80;97.70
27409;DHT22;20413;50.782;7.152;2022-08-19T11:05:18;30.20;98.60
27409;DHT22;20413;50.782;7.152;2022-08-19T11:07:44;29.40;99.00
27409;DHT22;20413;50.782;7.152;2022-08-19T11:10:13;29.10;99.70
27409;DHT22;20413;50.782;7.152;2022-08-19T11:12:40;28.90;99.90
27409;DHT22;20413;50.782;7.152;2022-08-19T11:18:10;30.50;97.80
27409;DHT22;20413;50.782;7.152;2022-08-19T11:20:36;30.60;97.10
27409;DHT22;20413;50.782;7.152;2022-08-19T11:23:02;30.00;97.70
27409;DHT22;20413;50.782;7.152;2022-08-19T11:25:27;30.90;98.10
27409;DHT22;20413;50.782;7.152;2022-08-19T11:27:53;32.20;96.30
27409;DHT22;20413;50.782;7.152;2022-08-19T11:30:18;32.20;95.50
27409;DHT22;20413;50.782;7.152;2022-08-19T11:32:44;31.50;95.40
27409;DHT22;20413;50.782;7.152;2022-08-19T11:35:10;30.50;96.70
27409;DHT22;20413;50.782;7.152;2022-08-19T11:37:36;31.50;97.30
27409;DHT22;20413;50.782;7.152;2022-08-19T11:40:05;32.80;95.80
27409;DHT22;20413;50.782;7.152;2022-08-19T11:42:31;34.20;94.10
27409;DHT22;20413;50.782;7.152;2022-08-19T11:45:15;34.10;93.20
27409;DHT22;20413;50.782;7.152;2022-08-19T11:47:41;32.40;94.40
27409;DHT22;20413;50.782;7.152;2022-08-19T11:50:07;31.70;95.10
27409;DHT22;20413;50.782;7.152;2022-08-19T11:52:32;32.40;95.10
27409;DHT22;20413;50.782;7.152;2022-08-19T11:54:58;33.60;94.20
27409;DHT22;20413;50.782;7.152;2022-08-19T11:57:24;34.90;92.80
27409;DHT22;20413;50.782;7.152;2022-08-19T11:59:51;35.20;91.50
27409;DHT22;20413;50.782;7.152;2022-08-19T12:02:17;34.20;91.70
27409;DHT22;20413;50.782;7.152;2022-08-19T12:04:44;33.90;92.10
27409;DHT22;20413;50.782;7.152;2022-08-19T12:07:09;34.00;92.90
27409;DHT22;20413;50.782;7.152;2022-08-19T12:09:35;35.20;91.60
27409;DHT22;20413;50.782;7.152;2022-08-19T12:12:01;36.00;91.30
27409;DHT22;20413;50.782;7.152;2022-08-19T12:14:28;36.80;87.10
27409;DHT22;20413;50.782;7.152;2022-08-19T12:16:55;37.00;86.90
27409;DHT22;20413;50.782;7.152;2022-08-19T12:19:21;36.60;86.00
27409;DHT22;20413;50.782;7.152;2022-08-19T12:21:47;36.60;85.00
27409;DHT22;20413;50.782;7.152;2022-08-19T12:24:13;36.90;83.90
27409;DHT22;20413;50.782;7.152;2022-08-19T12:26:38;38.10;85.30
27409;DHT22;20413;50.782;7.152;2022-08-19T12:29:04;38.00;83.60
27409;DHT22;20413;50.782;7.152;2022-08-19T12:31:30;37.80;79.40
27409;DHT22;20413;50.782;7.152;2022-08-19T12:33:55;38.30;79.40
27409;DHT22;20413;50.782;7.152;2022-08-19T12:36:21;38.10;79.90
27409;DHT22;20413;50.782;7.152;2022-08-19T12:38:48;37.90;78.80
27409;DHT22;20413;50.782;7.152;2022-08-19T12:41:15;38.10;78.50
27409;DHT22;20413;50.782;7.152;2022-08-19T12:43:43;38.70;78.40
27409;DHT22;20413;50.782;7.152;2022-08-19T12:46:09;38.20;77.40
27409;DHT22;20413;50.782;7.152;2022-08-19T12:48:35;38.10;77.70
27409;DHT22;20413;50.782;7.152;2022-08-19T12:51:06;37.20;78.50
27409;DHT22;20413;50.782;7.152;2022-08-19T12:53:32;36.00;81.20
27409;DHT22;20413;50.782;7.152;2022-08-19T12:55:58;36.00;81.00
27409;DHT22;20413;50.782;7.152;2022-08-19T12:58:25;35.90;81.00
27409;DHT22;20413;50.782;7.152;2022-08-19T13:00:52;36.40;79.10
27409;DHT22;20413;50.782;7.152;2022-08-19T13:03:17;37.30;78.20
27409;DHT22;20413;50.782;7.152;2022-08-19T13:05:43;37.80;77.40
27409;DHT22;20413;50.782;7.152;2022-08-19T13:08:08;37.70;76.60
27409;DHT22;20413;50.782;7.152;2022-08-19T13:10:35;37.60;76.00
27409;DHT22;20413;50.782;7.152;2022-08-19T13:13:07;37.70;76.10
27409;DHT22;20413;50.782;7.152;2022-08-19T13:15:34;38.50;74.40
27409;DHT22;20413;50.782;7.152;2022-08-19T13:18:00;37.10;75.20
27409;DHT22;20413;50.782;7.152;2022-08-19T13:20:26;37.60;76.70
27409;DHT22;20413;50.782;7.152;2022-08-19T13:22:53;38.00;75.80
27409;DHT22;20413;50.782;7.152;2022-08-19T13:25:19;38.20;74.20
27409;DHT22;20413;50.782;7.152;2022-08-19T13:27:47;38.70;73.30
27409;DHT22;20413;50.782;7.152;2022-08-19T13:30:14;39.40;72.40
27409;DHT22;20413;50.782;7.152;2022-08-19T13:32:59;39.20;71.30
27409;DHT22;20413;50.782;7.152;2022-08-19T13:35:38;38.10;73.10
27409;DHT22;20413;50.782;7.152;2022-08-19T13:38:04;38.70;72.10
27409;DHT22;20413;50.782;7.152;2022-08-19T13:40:31;37.90;74.60
27409;DHT22;20413;50.782;7.152;2022-08-19T13:42:59;37.90;73.50
27409;DHT22;20413;50.782;7.152;2022-08-19T13:45:26;37.20;74.50
27409;DHT22;20413;50.782;7.152;2022-08-19T13:47:54;37.20;75.10
27409;DHT22;20413;50.782;7.152;2022-08-19T13:50:23;37.20;74.30
27409;DHT22;20413;50.782;7.152;2022-08-19T13:52:54;37.10;74.50
27409;DHT22;20413;50.782;7.152;2022-08-19T13:55:19;36.60;73.60
27409;DHT22;20413;50.782;7.152;2022-08-19T13:57:45;36.80;75.00
27409;DHT22;20413;50.782;7.152;2022-08-19T14:00:16;36.70;74.00
27409;DHT22;20413;50.782;7.152;2022-08-19T14:02:45;35.70;75.20
27409;DHT22;20413;50.782;7.152;2022-08-19T14:05:14;35.00;76.90
27409;DHT22;20413;50.782;7.152;2022-08-19T14:07:40;34.80;81.20
27409;DHT22;20413;50.782;7.152;2022-08-19T14:10:08;35.70;78.60
27409;DHT22;20413;50.782;7.152;2022-08-19T14:12:34;35.90;74.20
27409;DHT22;20413;50.782;7.152;2022-08-19T14:15:01;35.90;74.90
27409;DHT22;20413;50.782;7.152;2022-08-19T14:17:28;36.20;73.30
27409;DHT22;20413;50.782;7.152;2022-08-19T14:20:02;36.00;73.50
27409;DHT22;20413;50.782;7.152;2022-08-19T14:22:30;36.20;74.80
27409;DHT22;20413;50.782;7.152;2022-08-19T14:24:57;36.60;72.50
27409;DHT22;20413;50.782;7.152;2022-08-19T14:27:22;36.80;71.90
27409;DHT22;20413;50.782;7.152;2022-08-19T14:29:49;36.50;71.70
27409;DHT22;20413;50.782;7.152;2022-08-19T14:32:15;36.80;69.90
27409;DHT22;20413;50.782;7.152;2022-08-19T14:34:41;36.80;70.90
27409;DHT22;20413;50.782;7.152;2022-08-19T14:37:06;36.40;71.20
27409;DHT22;20413;50.782;7.152;2022-08-19T14:39:33;35.20;73.40
27409;DHT22;20413;50.782;7.152;2022-08-19T14:41:59;35.20;74.50
27409;DHT22;20413;50.782;7.152;2022-08-19T14:44:24;34.90;75.30
27409;DHT22;20413;50.782;7.152;2022-08-19T14:46:50;35.40;74.70
27409;DHT22;20413;50.782;7.152;2022-08-19T14:49:15;36.30;72.40
27409;DHT22;20413;50.782;7.152;2022-08-19T14:51:41;36.30;71.80
27409;DHT22;20413;50.782;7.152;2022-08-19T14:54:07;36.70;71.30
27409;DHT22;20413;50.782;7.152;2022-08-19T14:56:33;36.50;70.80
27409;DHT22;20413;50.782;7.152;2022-08-19T14:58:58;35.60;72.70
27409;DHT22;20413;50.782;7.152;2022-08-19T15:01:26;34.30;73.70
27409;DHT22;20413;50.782;7.152;2022-08-19T15:03:52;33.00;76.80
27409;DHT22;20413;50.782;7.152;2022-08-19T15:06:19;32.90;78.90
27409;DHT22;20413;50.782;7.152;2022-08-19T15:08:45;33.00;78.80
27409;DHT22;20413;50.782;7.152;2022-08-19T15:11:15;33.10;78.40
27409;DHT22;20413;50.782;7.152;2022-08-19T15:13:42;33.60;79.20
27409;DHT22;20413;50.782;7.152;2022-08-19T15:16:09;33.90;76.80
27409;DHT22;20413;50.782;7.152;2022-08-19T15:18:35;33.90;77.10
27409;DHT22;20413;50.782;7.152;2022-08-19T15:21:02;34.40;77.70
27409;DHT22;20413;50.782;7.152;2022-08-19T15:23:28;34.70;75.60
27409;DHT22;20413;50.782;7.152;2022-08-19T15:25:54;34.80;75.30
27409;DHT22;20413;50.782;7.152;2022-08-19T15:28:24;34.70;74.70
27409;DHT22;20413;50.782;7.152;2022-08-19T15:30:50;34.60;75.10
27409;DHT22;20413;50.782;7.152;2022-08-19T15:33:18;35.10;74.60
27409;DHT22;20413;50.782;7.152;2022-08-19T15:35:45;34.90;73.80
27409;DHT22;20413;50.782;7.152;2022-08-19T15:38:11;34.20;75.10
27409;DHT22;20413;50.782;7.152;2022-08-19T15:40:43;34.00;74.90
27409;DHT22;20413;50.782;7.152;2022-08-19T15:43:09;34.00;74.90
27409;DHT22;20413;50.782;7.152;2022-08-19T15:45:35;34.40;74.30
27409;DHT22;20413;50.782;7.152;2022-08-19T15:48:03;34.60;73.80
27409;DHT22;20413;50.782;7.152;2022-08-19T15:50:30;34.20;74.40